map of LBD home
LBD - Airport
Location
City:  Khujand, Sughd, Tajikistan
Near (Alt.):Khudzhand
Name:Khujand Airport
ICAO:UTDL
IATA:LBD

Details
Type:Airport (Aerodrome, Airfield)
Use:Public/Civil, International (customs port of entry)
Latitude:4013'N (40.215)
Longitude:6942'E (69.697)
Elevation:1450 ft (442 m)
Variation:5.02E (WMM2015 magnetic declination)
0.05 annual change
Runways:1
Longest:10499 × 164 ft (3200 × 50 m), paved

Time
Time Zone:UTC+5
Local Time:

Weather
METAR:UTDL 211000Z 24004MPS 9999 FEW050 06/M02 Q1029 R26/CLRD70 NOSIG RMK QFE733/0978

Related Locations
Nearby:
Farthest:IPC: 11529 mi / 18554 km
Easter Island (Isla de Pascua, Rapa Nui) [Mataveri Intl], VS, CL

Find:

   beyond  
but within

Other Information
Maps:
NOTAMs:
Links:
Sources:

  
  • flag of Tajikistan
  

Sectional Chart

Flight Planning
at skyvector.com

Satellite Image

Google Maps Satellite view

Yandex Maps Satellite view


 

Copyright © 2004-2019 Karl L. Swartz. All rights reserved.
The Great Circle Mapper name and logo are trademarks of the Great Circle Mapper.
All other trademarks mentioned herein belong to their respective owners.
Please see credits for attibutions and further copyright information.

  Follow gcmap on Facebook Follow gcmap on Twitter Follow gcmap on Google+ GCmap on LinkedIn

hCard Microformat

Geo Microformat